createdAt,value
2018-04-19T00:00:46.325Z,13.53
2018-04-19T00:03:14.661Z,13.57
2018-04-19T00:05:42.987Z,13.43
2018-04-19T00:08:11.329Z,13.32
2018-04-19T00:10:39.681Z,13.35
2018-04-19T00:13:08.029Z,13.22
2018-04-19T00:15:36.433Z,13.25
2018-04-19T00:18:04.784Z,13.26
2018-04-19T00:20:33.108Z,13.15
2018-04-19T00:23:01.507Z,12.89
2018-04-19T00:25:29.813Z,12.96
2018-04-19T00:27:58.177Z,12.96
2018-04-19T00:30:26.605Z,13.00
2018-04-19T00:32:54.922Z,12.99
2018-04-19T00:35:23.357Z,12.98
2018-04-19T00:37:51.673Z,12.95
2018-04-19T00:40:20.104Z,12.91
2018-04-19T00:42:48.418Z,12.68
2018-04-19T00:45:16.763Z,12.83
2018-04-19T00:47:45.150Z,12.61
2018-04-19T00:50:13.497Z,12.76
2018-04-19T00:55:45.613Z,12.64
2018-04-19T00:58:13.981Z,12.69
2018-04-19T01:00:42.360Z,12.59
2018-04-19T01:03:10.690Z,12.48
2018-04-19T01:05:39.054Z,12.54
2018-04-19T01:08:07.399Z,12.46
2018-04-19T01:10:35.763Z,12.52
2018-04-19T01:13:04.092Z,12.30
2018-04-19T01:15:32.525Z,12.45
2018-04-19T01:18:00.853Z,12.43
2018-04-19T01:20:29.205Z,12.37
2018-04-19T01:22:57.531Z,12.30
2018-04-19T01:25:25.909Z,12.25
2018-04-19T01:27:54.233Z,12.22
2018-04-19T01:30:22.593Z,12.06
2018-04-19T01:32:50.930Z,12.00
2018-04-19T01:35:19.457Z,12.10
2018-04-19T01:37:47.773Z,12.14
2018-04-19T01:40:16.148Z,11.92
2018-04-19T01:42:44.500Z,11.63
2018-04-19T01:45:12.813Z,11.86
2018-04-19T01:47:41.163Z,11.91
2018-04-19T01:50:09.491Z,11.98
2018-04-19T01:52:37.838Z,11.91
2018-04-19T01:55:06.168Z,11.99
2018-04-19T01:57:34.516Z,11.74
2018-04-19T02:00:02.837Z,11.85
2018-04-19T02:02:31.177Z,11.58
2018-04-19T02:04:59.594Z,11.49
2018-04-19T02:07:27.973Z,11.53
2018-04-19T02:09:56.309Z,11.62
2018-04-19T02:12:24.661Z,11.52
2018-04-19T02:14:52.981Z,11.41
2018-04-19T02:17:21.328Z,11.55
2018-04-19T02:19:49.651Z,11.58
2018-04-19T02:22:18.000Z,11.54
2018-04-19T02:24:46.414Z,11.36
2018-04-19T02:27:14.781Z,11.57
2018-04-19T02:29:43.172Z,11.46
2018-04-19T02:32:11.523Z,11.47
2018-04-19T02:34:39.847Z,11.47
2018-04-19T02:37:08.195Z,11.23
2018-04-19T02:39:36.573Z,11.43
2018-04-19T02:42:05.063Z,11.16
2018-04-19T02:44:33.395Z,11.17
2018-04-19T02:47:01.706Z,11.45
2018-04-19T02:49:30.052Z,11.47
2018-04-19T02:51:58.373Z,11.37
2018-04-19T02:54:26.738Z,11.49
2018-04-19T02:56:55.054Z,11.21
2018-04-19T02:59:24.408Z,11.12
2018-04-19T03:01:53.686Z,11.14
2018-04-19T03:04:22.026Z,11.00
2018-04-19T03:06:50.349Z,11.12
2018-04-19T03:09:18.707Z,11.14
2018-04-19T03:11:47.121Z,11.02
2018-04-19T03:14:15.476Z,10.93
2018-04-19T03:16:43.804Z,10.95
2018-04-19T03:19:12.165Z,10.84
2018-04-19T03:21:40.533Z,10.80
2018-04-19T03:24:08.878Z,10.67
2018-04-19T03:26:37.288Z,10.99
2018-04-19T03:29:05.639Z,11.09
2018-04-19T03:31:33.951Z,11.04
2018-04-19T03:34:02.313Z,11.04
2018-04-19T03:36:30.707Z,10.71
2018-04-19T03:38:59.085Z,10.82
2018-04-19T03:41:27.443Z,10.79
2018-04-19T03:43:55.760Z,10.68
2018-04-19T03:46:24.103Z,10.80
2018-04-19T03:48:52.612Z,10.77
2018-04-19T03:51:20.958Z,10.53
2018-04-19T03:53:49.389Z,10.70
2018-04-19T03:56:17.710Z,10.54
2018-04-19T03:58:46.033Z,10.55
2018-04-19T04:01:14.534Z,10.42
2018-04-19T04:03:42.821Z,10.33
2018-04-19T04:06:11.280Z,10.41
2018-04-19T04:08:39.571Z,10.52
2018-04-19T04:11:07.897Z,10.46
2018-04-19T04:13:36.233Z,10.57
2018-04-19T04:16:04.661Z,10.54
2018-04-19T04:18:44.759Z,10.57
2018-04-19T04:21:19.125Z,10.69
2018-04-19T04:23:52.257Z,10.63
2018-04-19T04:26:20.598Z,10.61
2018-04-19T04:28:48.937Z,10.76
2018-04-19T04:31:17.407Z,10.80
2018-04-19T04:33:45.730Z,10.79
2018-04-19T04:36:14.049Z,10.85
2018-04-19T04:38:42.399Z,10.73
2018-04-19T04:41:10.795Z,10.79
2018-04-19T04:43:39.146Z,10.80
2018-04-19T04:46:07.565Z,10.77
2018-04-19T04:48:35.904Z,10.71
2018-04-19T04:51:04.224Z,10.78
2018-04-19T04:53:32.567Z,10.73
2018-04-19T04:56:00.940Z,10.74
2018-04-19T04:58:29.421Z,10.77
2018-04-19T05:00:57.750Z,10.90
2018-04-19T05:03:26.147Z,10.90
2018-04-19T05:05:54.479Z,10.92
2018-04-19T05:08:22.810Z,10.96
2018-04-19T05:10:51.149Z,10.99
2018-04-19T05:13:19.480Z,11.18
2018-04-19T05:15:47.857Z,11.30
2018-04-19T05:18:16.232Z,11.29
2018-04-19T05:20:44.613Z,11.28
2018-04-19T05:23:12.988Z,11.38
2018-04-19T05:25:41.321Z,11.42
2018-04-19T05:28:09.668Z,11.51
2018-04-19T05:30:37.987Z,11.56
2018-04-19T05:33:06.406Z,11.53
2018-04-19T05:35:34.756Z,11.65
2018-04-19T05:38:03.152Z,11.74
2018-04-19T05:40:31.590Z,11.78
2018-04-19T05:42:59.916Z,11.65
2018-04-19T05:45:28.274Z,11.81
2018-04-19T05:47:56.598Z,11.86
2018-04-19T05:50:24.929Z,11.87
2018-04-19T05:52:53.317Z,11.97
2018-04-19T05:55:21.693Z,12.10
2018-04-19T05:57:50.007Z,12.18
2018-04-19T06:00:18.406Z,12.28
2018-04-19T06:02:46.718Z,12.37
2018-04-19T06:05:15.120Z,12.43
2018-04-19T06:07:43.500Z,12.54
2018-04-19T06:10:11.886Z,12.72
2018-04-19T06:12:40.270Z,12.80
2018-04-19T06:15:08.677Z,12.86
2018-04-19T06:17:36.962Z,12.98
2018-04-19T06:20:05.297Z,13.10
2018-04-19T06:22:33.646Z,13.20
2018-04-19T06:25:01.985Z,13.25
2018-04-19T06:27:30.333Z,13.42
2018-04-19T06:29:58.657Z,13.49
2018-04-19T06:32:27.001Z,13.56
2018-04-19T06:34:55.329Z,13.56
2018-04-19T06:37:23.729Z,13.72
2018-04-19T06:39:52.090Z,13.77
2018-04-19T06:42:20.479Z,13.83
2018-04-19T06:44:48.862Z,14.08
2018-04-19T06:47:17.284Z,14.07
2018-04-19T06:49:45.640Z,14.10
2018-04-19T06:52:14.042Z,14.14
2018-04-19T06:54:42.388Z,14.20
2018-04-19T06:57:10.712Z,14.26
2018-04-19T06:59:39.059Z,14.46
2018-04-19T07:02:07.385Z,14.48
2018-04-19T07:04:35.791Z,14.56
2018-04-19T07:07:04.119Z,14.70
2018-04-19T07:09:32.464Z,14.71
2018-04-19T07:12:00.783Z,15.00
2018-04-19T07:14:29.132Z,15.08
2018-04-19T07:16:57.474Z,15.04
2018-04-19T07:19:25.857Z,15.02
2018-04-19T07:21:54.161Z,15.27
2018-04-19T07:24:22.506Z,15.29
2018-04-19T07:26:50.928Z,15.52
2018-04-19T07:29:19.258Z,15.73
2018-04-19T07:31:47.575Z,15.85
2018-04-19T07:34:16.078Z,16.02
2018-04-19T07:36:44.389Z,16.10
2018-04-19T07:39:12.698Z,16.22
2018-04-19T07:41:41.038Z,16.25
2018-04-19T07:44:09.356Z,16.23
2018-04-19T07:46:37.695Z,16.42
2018-04-19T07:49:06.014Z,16.50
2018-04-19T07:51:34.383Z,16.49
2018-04-19T07:54:02.685Z,16.81
2018-04-19T07:56:31.013Z,16.69
2018-04-19T07:58:59.325Z,16.97
2018-04-19T08:01:27.713Z,16.96
2018-04-19T08:03:56.030Z,16.88
2018-04-19T08:06:24.376Z,17.36
2018-04-19T08:08:52.688Z,17.36
2018-04-19T08:11:21.061Z,17.20
2018-04-19T08:13:49.360Z,17.44
2018-04-19T08:16:17.778Z,17.46
2018-04-19T08:18:46.094Z,17.46
2018-04-19T08:21:14.460Z,17.77
2018-04-19T08:23:42.774Z,17.87
2018-04-19T08:26:11.116Z,18.08
2018-04-19T08:28:39.509Z,18.20
2018-04-19T08:31:07.825Z,18.10
2018-04-19T08:33:36.189Z,18.54
2018-04-19T08:36:04.561Z,18.61
2018-04-19T08:38:32.909Z,18.50
2018-04-19T08:41:01.232Z,18.81
2018-04-19T08:43:29.573Z,18.41
2018-04-19T08:45:57.899Z,18.42
2018-04-19T08:48:26.232Z,18.62
2018-04-19T08:50:54.556Z,19.12
2018-04-19T08:53:23.044Z,19.18
2018-04-19T08:55:51.427Z,19.22
2018-04-19T08:58:19.753Z,19.32
2018-04-19T09:00:48.149Z,19.12
2018-04-19T09:03:16.715Z,19.21
2018-04-19T09:05:45.058Z,19.52
2018-04-19T09:08:13.478Z,19.43
2018-04-19T09:10:41.817Z,19.62
2018-04-19T09:13:10.241Z,19.48
2018-04-19T09:15:38.573Z,19.48
2018-04-19T09:18:06.981Z,19.30
2018-04-19T09:20:35.322Z,19.47
2018-04-19T09:23:03.692Z,19.73
2018-04-19T09:25:32.017Z,19.99
2018-04-19T09:28:00.332Z,19.62
2018-04-19T09:30:28.673Z,19.76
2018-04-19T09:32:57.000Z,19.78
2018-04-19T09:35:25.393Z,19.68
2018-04-19T09:37:53.709Z,19.89
2018-04-19T09:40:22.100Z,20.06
2018-04-19T09:42:50.474Z,20.25
2018-04-19T09:45:18.826Z,20.40
2018-04-19T09:47:47.133Z,20.40
2018-04-19T09:50:15.546Z,21.03
2018-04-19T09:52:43.921Z,21.25
2018-04-19T09:55:12.260Z,21.13
2018-04-19T09:57:40.608Z,21.12
2018-04-19T10:00:08.954Z,21.11
2018-04-19T10:02:37.293Z,21.38
2018-04-19T10:05:05.633Z,21.17
2018-04-19T10:07:34.041Z,21.78
2018-04-19T10:10:02.379Z,21.77
2018-04-19T10:12:30.715Z,22.02
2018-04-19T10:14:59.078Z,21.91
2018-04-19T10:17:27.458Z,22.01
2018-04-19T10:19:55.838Z,21.74
2018-04-19T10:22:24.180Z,22.03
2018-04-19T10:24:52.504Z,22.58
2018-04-19T10:27:20.898Z,21.84
2018-04-19T10:29:49.280Z,21.94
2018-04-19T10:32:17.620Z,21.67
2018-04-19T10:34:46.004Z,21.50
2018-04-19T10:37:14.345Z,21.40
2018-04-19T10:39:42.669Z,21.59
2018-04-19T10:42:11.039Z,21.52
2018-04-19T10:44:39.344Z,21.53
2018-04-19T10:47:07.698Z,21.79
2018-04-19T10:49:36.077Z,21.72
2018-04-19T10:52:04.432Z,21.90
2018-04-19T10:54:32.783Z,22.22
2018-04-19T10:57:01.104Z,22.23
2018-04-19T10:59:29.442Z,22.08
2018-04-19T11:01:57.865Z,22.35
2018-04-19T11:04:26.237Z,22.78
2018-04-19T11:06:54.564Z,22.55
2018-04-19T11:09:22.901Z,22.80
2018-04-19T11:11:51.273Z,23.02
2018-04-19T11:14:19.611Z,22.80
2018-04-19T11:16:47.920Z,22.98
2018-04-19T11:19:16.303Z,23.35
2018-04-19T11:21:44.664Z,23.29
2018-04-19T11:24:13.054Z,23.49
2018-04-19T11:26:41.365Z,23.20
2018-04-19T11:29:09.820Z,23.37
2018-04-19T11:31:38.197Z,23.31
2018-04-19T11:34:06.565Z,23.59
2018-04-19T11:36:34.911Z,23.56
2018-04-19T11:39:03.249Z,23.78
2018-04-19T11:41:31.594Z,24.14
2018-04-19T11:43:59.980Z,24.16
2018-04-19T11:46:28.325Z,24.28
2018-04-19T11:48:56.652Z,24.73
2018-04-19T11:51:25.016Z,25.20
2018-04-19T11:53:53.434Z,25.55
2018-04-19T11:56:21.764Z,25.72
2018-04-19T11:58:50.117Z,25.65
2018-04-19T12:01:18.477Z,25.80
2018-04-19T12:03:46.825Z,25.96
2018-04-19T12:06:15.192Z,26.12
2018-04-19T12:11:11.007Z,27.41
2018-04-19T12:13:39.364Z,27.15
2018-04-19T12:16:07.689Z,27.15
2018-04-19T12:18:36.019Z,27.60
2018-04-19T12:21:04.602Z,27.27
2018-04-19T12:23:32.910Z,27.25
2018-04-19T12:26:01.330Z,27.66
2018-04-19T12:28:29.771Z,28.22
2018-04-19T12:30:58.190Z,29.04
2018-04-19T12:33:26.522Z,29.40
2018-04-19T12:35:54.858Z,29.25
2018-04-19T12:38:23.193Z,27.93
2018-04-19T12:40:51.526Z,28.10
2018-04-19T12:43:19.877Z,28.42
2018-04-19T12:45:48.221Z,28.58
2018-04-19T12:48:16.570Z,29.24
2018-04-19T12:50:44.966Z,29.01
2018-04-19T12:53:13.304Z,29.80
2018-04-19T12:55:41.729Z,29.27
2018-04-19T12:58:10.084Z,29.90
2018-04-19T13:00:38.477Z,30.01
2018-04-19T13:03:06.830Z,29.28
2018-04-19T13:05:35.148Z,30.45
2018-04-19T13:08:03.504Z,29.61
2018-04-19T13:10:31.826Z,29.49
2018-04-19T13:13:00.272Z,29.56
2018-04-19T13:15:28.602Z,29.28
2018-04-19T13:17:56.927Z,29.47
2018-04-19T13:20:25.307Z,29.56
2018-04-19T13:22:53.681Z,29.76
2018-04-19T13:25:22.021Z,29.79
2018-04-19T13:27:50.342Z,29.53
2018-04-19T13:30:18.812Z,30.14
2018-04-19T13:32:47.143Z,30.10
2018-04-19T13:35:15.482Z,30.40
2018-04-19T13:37:43.848Z,30.55
2018-04-19T13:40:12.192Z,31.08
2018-04-19T13:42:40.511Z,30.04
2018-04-19T13:45:08.926Z,30.77
2018-04-19T13:47:37.244Z,30.95
2018-04-19T13:50:05.634Z,30.63
2018-04-19T13:52:34.032Z,30.92
2018-04-19T13:55:02.397Z,30.88
2018-04-19T13:57:30.693Z,30.99
2018-04-19T13:59:59.093Z,31.04
2018-04-19T14:02:27.429Z,31.14
2018-04-19T14:04:55.738Z,31.22
2018-04-19T14:07:24.228Z,31.37
2018-04-19T14:09:52.549Z,30.52
2018-04-19T14:12:20.945Z,31.16
2018-04-19T14:14:49.273Z,31.36
2018-04-19T14:17:17.625Z,31.39
2018-04-19T14:19:45.928Z,31.73
2018-04-19T14:22:14.286Z,31.58
2018-04-19T14:24:42.632Z,30.92
2018-04-19T14:27:11.134Z,31.66
2018-04-19T14:29:39.455Z,31.66
2018-04-19T14:32:07.882Z,31.91
2018-04-19T14:34:36.200Z,32.14
2018-04-19T14:37:04.628Z,31.47
2018-04-19T14:39:33.002Z,31.26
2018-04-19T14:42:01.428Z,30.19
2018-04-19T14:44:29.741Z,30.74
2018-04-19T14:46:58.094Z,31.06
2018-04-19T14:49:26.514Z,31.90
2018-04-19T14:51:54.861Z,32.25
2018-04-19T14:54:23.274Z,31.59
2018-04-19T14:56:51.648Z,30.96
2018-04-19T14:59:20.052Z,31.21
2018-04-19T15:01:48.403Z,31.20
2018-04-19T15:04:16.718Z,31.22
2018-04-19T15:06:45.089Z,31.34
2018-04-19T15:09:13.410Z,32.56
2018-04-19T15:11:41.722Z,31.92
2018-04-19T15:14:10.062Z,32.20
2018-04-19T15:16:38.389Z,32.42
2018-04-19T15:19:06.725Z,31.64
2018-04-19T15:21:35.041Z,31.95
2018-04-19T15:24:03.392Z,32.62
2018-04-19T15:26:31.701Z,32.98
2018-04-19T15:29:00.107Z,31.90
2018-04-19T15:31:28.439Z,32.01
2018-04-19T15:33:56.777Z,32.69
2018-04-19T15:36:25.109Z,31.21
2018-04-19T15:38:53.460Z,31.28
2018-04-19T15:41:21.776Z,31.61
2018-04-19T15:43:50.153Z,31.16
2018-04-19T15:46:18.574Z,31.68
2018-04-19T15:48:46.938Z,31.13
2018-04-19T15:51:15.349Z,31.36
2018-04-19T15:53:43.733Z,31.99
2018-04-19T15:56:12.059Z,31.46
2018-04-19T15:58:40.369Z,31.69
2018-04-19T16:01:08.731Z,31.72
2018-04-19T16:03:37.050Z,31.13
2018-04-19T16:06:05.437Z,30.92
2018-04-19T16:08:33.747Z,31.67
2018-04-19T16:11:02.086Z,31.22
2018-04-19T16:13:30.401Z,31.13
2018-04-19T16:15:58.745Z,31.27
2018-04-19T16:18:27.075Z,30.89
2018-04-19T16:20:55.413Z,31.06
2018-04-19T16:23:23.769Z,30.41
2018-04-19T16:25:52.108Z,30.13
2018-04-19T16:28:20.531Z,29.76
2018-04-19T16:30:48.880Z,29.52
2018-04-19T16:33:17.197Z,29.69
2018-04-19T16:35:45.532Z,29.30
2018-04-19T16:38:13.931Z,28.96
2018-04-19T16:40:42.328Z,29.96
2018-04-19T16:43:10.644Z,29.21
2018-04-19T16:45:39.069Z,29.12
2018-04-19T16:48:07.440Z,28.81
2018-04-19T16:50:35.785Z,29.34
2018-04-19T16:53:04.168Z,28.12
2018-04-19T16:55:32.470Z,27.49
2018-04-19T16:58:00.834Z,26.41
2018-04-19T17:00:29.274Z,26.77
2018-04-19T17:02:57.840Z,26.90
2018-04-19T17:05:26.186Z,25.27
2018-04-19T17:07:54.525Z,24.87
2018-04-19T17:10:22.991Z,24.63
2018-04-19T17:12:51.437Z,24.50
2018-04-19T17:15:19.851Z,24.16
2018-04-19T17:17:48.229Z,23.83
2018-04-19T17:20:16.525Z,23.74
2018-04-19T17:22:44.871Z,23.46
2018-04-19T17:25:13.196Z,23.37
2018-04-19T17:27:41.563Z,23.24
2018-04-19T17:30:10.003Z,23.09
2018-04-19T17:32:38.348Z,22.97
2018-04-19T17:35:06.733Z,22.90
2018-04-19T17:37:35.070Z,22.77
2018-04-19T17:40:03.396Z,22.90
2018-04-19T17:42:32.001Z,22.92
2018-04-19T17:45:00.333Z,22.67
2018-04-19T17:47:28.649Z,22.75
2018-04-19T17:49:56.984Z,22.52
2018-04-19T17:52:25.311Z,22.42
2018-04-19T17:54:53.666Z,22.40
2018-04-19T17:57:22.032Z,22.26
2018-04-19T17:59:50.418Z,22.02
2018-04-19T18:02:18.748Z,21.97
2018-04-19T18:04:47.169Z,21.93
2018-04-19T18:07:15.488Z,21.92
2018-04-19T18:09:43.825Z,21.88
2018-04-19T18:12:12.141Z,21.68
2018-04-19T18:14:40.672Z,21.56
2018-04-19T18:17:08.993Z,21.49
2018-04-19T18:19:37.356Z,21.37
2018-04-19T18:22:05.676Z,21.34
2018-04-19T18:24:34.018Z,21.18
2018-04-19T18:27:02.366Z,21.00
2018-04-19T18:29:30.759Z,20.95
2018-04-19T18:31:59.084Z,20.91
2018-04-19T18:34:27.502Z,20.99
2018-04-19T18:36:55.927Z,20.74
2018-04-19T18:39:24.181Z,20.47
2018-04-19T18:41:52.516Z,20.40
2018-04-19T18:44:20.916Z,20.13
2018-04-19T18:46:49.304Z,20.00
2018-04-19T18:49:17.676Z,20.08
2018-04-19T18:51:46.105Z,19.77
2018-04-19T18:54:14.437Z,19.82
2018-04-19T18:56:42.775Z,19.63
2018-04-19T18:59:11.097Z,19.49
2018-04-19T19:01:39.479Z,19.48
2018-04-19T19:04:07.844Z,19.25
2018-04-19T19:06:36.190Z,19.10
2018-04-19T19:09:04.671Z,19.00
2018-04-19T19:11:33.085Z,19.17
2018-04-19T19:14:01.405Z,18.80
2018-04-19T19:16:29.739Z,18.67
2018-04-19T19:19:09.935Z,18.56
2018-04-19T19:21:38.269Z,18.56
2018-04-19T19:24:06.653Z,18.37
2018-04-19T19:26:34.993Z,18.66
2018-04-19T19:29:03.314Z,18.62
2018-04-19T19:31:31.649Z,18.73
2018-04-19T19:34:00.004Z,18.27
2018-04-19T19:36:28.353Z,18.03
2018-04-19T19:38:56.667Z,18.33
2018-04-19T19:41:25.020Z,18.38
2018-04-19T19:43:53.355Z,18.33
2018-04-19T19:46:21.695Z,18.31
2018-04-19T19:48:50.017Z,18.35
2018-04-19T19:51:18.349Z,18.37
2018-04-19T19:53:46.669Z,18.30
2018-04-19T19:56:15.058Z,18.09
2018-04-19T19:58:43.377Z,17.87
2018-04-19T20:01:11.719Z,17.92
2018-04-19T20:03:40.081Z,18.07
2018-04-19T20:06:08.453Z,17.92
2018-04-19T20:08:36.864Z,17.71
2018-04-19T20:11:05.263Z,17.84
2018-04-19T20:13:33.632Z,17.86
2018-04-19T20:16:01.949Z,17.82
2018-04-19T20:18:30.285Z,17.81
2018-04-19T20:20:58.608Z,17.92
2018-04-19T20:23:26.966Z,17.86
2018-04-19T20:25:55.399Z,17.79
2018-04-19T20:28:23.765Z,17.79
2018-04-19T20:30:52.085Z,17.68
2018-04-19T20:33:20.526Z,17.60
2018-04-19T20:35:48.842Z,17.49
2018-04-19T20:38:17.182Z,17.57
2018-04-19T20:40:45.512Z,17.45
2018-04-19T20:43:13.851Z,17.35
2018-04-19T20:45:42.228Z,17.24
2018-04-19T20:48:10.630Z,17.30
2018-04-19T20:50:38.929Z,17.27
2018-04-19T20:53:07.276Z,17.21
2018-04-19T20:55:35.594Z,17.20
2018-04-19T20:58:03.945Z,16.92
2018-04-19T21:00:32.317Z,17.14
2018-04-19T21:03:00.646Z,17.03
2018-04-19T21:05:29.038Z,16.93
2018-04-19T21:07:57.418Z,17.27
2018-04-19T21:10:25.743Z,17.38
2018-04-19T21:12:54.114Z,17.41
2018-04-19T21:15:22.433Z,17.32
2018-04-19T21:17:50.749Z,17.09
2018-04-19T21:20:19.193Z,17.18
2018-04-19T21:22:47.517Z,17.15
2018-04-19T21:25:15.973Z,16.96
2018-04-19T21:27:44.334Z,16.80
2018-04-19T21:30:12.687Z,16.58
2018-04-19T21:32:41.023Z,16.46
2018-04-19T21:35:09.358Z,16.47
2018-04-19T21:37:37.671Z,16.68
2018-04-19T21:40:06.017Z,16.69
2018-04-19T21:42:34.403Z,16.64
2018-04-19T21:45:02.790Z,16.58
2018-04-19T21:47:31.158Z,16.41
2018-04-19T21:49:59.504Z,16.56
2018-04-19T21:52:27.852Z,16.48
2018-04-19T21:54:56.190Z,16.38
2018-04-19T21:57:24.506Z,16.23
2018-04-19T21:59:52.885Z,16.21
2018-04-19T22:02:21.224Z,16.26
2018-04-19T22:04:49.553Z,16.53
2018-04-19T22:07:17.895Z,16.12
2018-04-19T22:09:46.257Z,16.12
2018-04-19T22:12:14.697Z,16.26
2018-04-19T22:14:43.129Z,16.46
2018-04-19T22:17:11.492Z,16.23
2018-04-19T22:19:39.814Z,16.30
2018-04-19T22:22:08.146Z,15.99
2018-04-19T22:24:36.533Z,15.97
2018-04-19T22:27:04.913Z,15.84
2018-04-19T22:29:33.303Z,16.02
2018-04-19T22:32:01.640Z,15.81
2018-04-19T22:34:30.062Z,15.89
2018-04-19T22:36:58.434Z,15.68
2018-04-19T22:39:26.901Z,15.79
2018-04-19T22:41:55.326Z,15.82
2018-04-19T22:44:23.753Z,15.72
2018-04-19T22:46:52.336Z,15.65
2018-04-19T22:49:20.629Z,15.57
2018-04-19T22:51:49.021Z,15.57
2018-04-19T22:54:17.328Z,15.61
2018-04-19T22:56:45.697Z,15.35
2018-04-19T22:59:14.059Z,15.13
2018-04-19T23:01:42.367Z,15.12
2018-04-19T23:04:10.701Z,15.18
2018-04-19T23:06:39.017Z,15.15
2018-04-19T23:09:07.348Z,14.98
2018-04-19T23:11:35.672Z,14.79
2018-04-19T23:14:04.086Z,14.96
2018-04-19T23:16:32.473Z,14.85
2018-04-19T23:19:00.846Z,14.71
2018-04-19T23:21:29.182Z,14.81
2018-04-19T23:23:57.517Z,14.71
2018-04-19T23:26:25.832Z,14.52
2018-04-19T23:28:54.173Z,14.55
2018-04-19T23:31:22.468Z,14.63
2018-04-19T23:33:50.912Z,14.31
2018-04-19T23:36:19.221Z,14.36
2018-04-19T23:38:47.665Z,14.42
2018-04-19T23:41:16.000Z,14.27
2018-04-19T23:43:44.420Z,14.30
2018-04-19T23:46:12.794Z,14.06
2018-04-19T23:48:41.392Z,14.06
2018-04-19T23:51:09.698Z,14.05
2018-04-19T23:53:38.041Z,14.09
2018-04-19T23:56:06.386Z,14.13
2018-04-19T23:58:34.787Z,13.78
